createdAt,value
2023-05-05T00:01:08.575Z,100739.66
2023-05-05T00:03:35.624Z,100728.63
2023-05-05T00:06:02.929Z,100736.91
2023-05-05T00:08:29.909Z,100715.53
2023-05-05T00:10:56.537Z,100717.34
2023-05-05T00:13:24.665Z,100730.06
2023-05-05T00:15:53.154Z,100729.16
2023-05-05T00:18:20.506Z,100726.13
2023-05-05T00:20:47.733Z,100715.84
2023-05-05T00:23:14.773Z,100724.91
2023-05-05T00:25:41.334Z,100721.16
2023-05-05T00:28:07.980Z,100716.59
2023-05-05T00:30:35.968Z,100725.69
2023-05-05T00:33:02.526Z,100725.69
2023-05-05T00:35:30.559Z,100719.69
2023-05-05T00:37:57.168Z,100724.00
2023-05-05T00:40:23.911Z,100714.47
2023-05-05T00:42:50.445Z,100731.34
2023-05-05T00:45:18.506Z,100727.44
2023-05-05T00:47:48.284Z,100723.97
2023-05-05T00:50:22.041Z,100715.75
2023-05-05T00:52:49.278Z,100710.47
2023-05-05T00:55:16.278Z,100713.16
2023-05-05T00:57:44.020Z,100711.22
2023-05-05T01:00:11.514Z,100720.00
2023-05-05T01:02:39.316Z,100717.47
2023-05-05T01:05:08.185Z,100722.13
2023-05-05T01:07:43.955Z,100726.44
2023-05-05T01:10:20.643Z,100719.47
2023-05-05T01:12:57.300Z,100721.28
2023-05-05T01:15:31.967Z,100724.63
2023-05-05T01:18:06.322Z,100731.16
2023-05-05T01:20:40.987Z,100729.91
2023-05-05T01:23:09.616Z,100736.88
2023-05-05T01:26:09.651Z,100735.34
2023-05-05T01:28:54.680Z,100738.69
2023-05-05T01:31:46.998Z,100736.75
2023-05-05T01:34:16.593Z,100738.69
2023-05-05T01:36:49.483Z,100743.28
2023-05-05T01:39:16.857Z,100737.31
2023-05-05T01:41:46.969Z,100726.59
2023-05-05T01:44:15.531Z,100740.09
2023-05-05T01:46:43.431Z,100743.19
2023-05-05T01:49:11.545Z,100744.41
2023-05-05T01:51:39.524Z,100739.00
2023-05-05T01:54:08.533Z,100742.34
2023-05-05T01:56:38.592Z,100748.06
2023-05-05T01:59:05.851Z,100749.59
2023-05-05T02:01:35.393Z,100754.34
2023-05-05T02:04:05.540Z,100753.63
2023-05-05T02:06:33.703Z,100748.75
2023-05-05T02:09:02.356Z,100748.88
2023-05-05T02:11:29.787Z,100756.56
2023-05-05T02:13:58.788Z,100764.34
2023-05-05T02:16:26.039Z,100762.41
2023-05-05T02:18:54.257Z,100767.69
2023-05-05T02:21:22.224Z,100765.47
2023-05-05T02:23:48.808Z,100768.13
2023-05-05T02:26:16.813Z,100763.78
2023-05-05T02:28:48.755Z,100759.63
2023-05-05T02:31:17.795Z,100759.75
2023-05-05T02:33:47.235Z,100760.75
2023-05-05T02:36:18.886Z,100740.13
2023-05-05T02:38:58.847Z,100763.66
2023-05-05T02:41:29.956Z,100761.31
2023-05-05T02:44:00.738Z,100760.19
2023-05-05T02:46:29.291Z,100770.06
2023-05-05T02:48:56.472Z,100768.53
2023-05-05T02:51:22.951Z,100776.59
2023-05-05T02:53:49.756Z,100783.03
2023-05-05T02:56:26.754Z,100783.56
2023-05-05T02:59:02.573Z,100779.97
2023-05-05T03:01:40.036Z,100779.13
2023-05-05T03:04:15.215Z,100787.91
2023-05-05T03:06:49.804Z,100784.13
2023-05-05T03:09:27.561Z,100793.59
2023-05-05T03:12:01.199Z,100793.47
2023-05-05T03:14:35.010Z,100788.84
2023-05-05T03:17:04.277Z,100794.84
2023-05-05T03:19:31.892Z,100792.34
2023-05-05T03:22:03.365Z,100786.91
2023-05-05T03:24:31.416Z,100796.25
2023-05-05T03:27:05.583Z,100791.78
2023-05-05T03:29:36.540Z,100791.94
2023-05-05T03:32:06.315Z,100789.00
2023-05-05T03:34:33.476Z,100792.78
2023-05-05T03:37:03.076Z,100788.16
2023-05-05T03:39:30.026Z,100737.28
2023-05-05T03:41:57.289Z,100791.78
2023-05-05T03:44:27.689Z,100796.47
2023-05-05T03:46:54.275Z,100798.41
2023-05-05T03:49:21.050Z,100802.75
2023-05-05T03:51:48.524Z,100797.78
2023-05-05T03:54:15.308Z,100803.06
2023-05-05T03:56:41.819Z,100806.22
2023-05-05T03:59:08.439Z,100812.47
2023-05-05T04:01:36.388Z,100806.22
2023-05-05T04:04:03.093Z,100801.78
2023-05-05T04:06:29.703Z,100806.47
2023-05-05T04:08:56.276Z,100804.81
2023-05-05T04:11:22.815Z,100804.13
2023-05-05T04:13:50.085Z,100806.31
2023-05-05T04:16:17.483Z,100805.63
2023-05-05T04:18:45.383Z,100812.88
2023-05-05T04:21:12.039Z,100812.03
2023-05-05T04:23:39.820Z,100808.81
2023-05-05T04:26:06.954Z,100815.78
2023-05-05T04:28:33.501Z,100817.31
2023-05-05T04:31:00.050Z,100805.06
2023-05-05T04:33:27.566Z,100824.47
2023-05-05T04:35:55.622Z,100828.56
2023-05-05T04:38:22.402Z,100827.72
2023-05-05T04:40:49.041Z,100825.78
2023-05-05T04:43:16.619Z,100834.16
2023-05-05T04:45:52.122Z,100832.47
2023-05-05T04:48:20.004Z,100830.66
2023-05-05T04:50:46.915Z,100831.50
2023-05-05T04:53:15.242Z,100837.50
2023-05-05T04:55:41.826Z,100833.56
2023-05-05T04:58:08.394Z,100835.84
2023-05-05T05:00:35.870Z,100837.91
2023-05-05T05:03:02.714Z,100830.66
2023-05-05T05:05:29.293Z,100834.53
2023-05-05T05:07:56.054Z,100832.28
2023-05-05T05:10:24.571Z,100841.66
2023-05-05T05:12:51.169Z,100837.59
2023-05-05T05:15:17.732Z,100848.47
2023-05-05T05:17:44.473Z,100848.72
2023-05-05T05:20:12.582Z,100847.31
2023-05-05T05:22:39.328Z,100851.91
2023-05-05T05:25:10.558Z,100847.03
2023-05-05T05:27:38.602Z,100859.25
2023-05-05T05:30:06.402Z,100863.44
2023-05-05T05:32:33.905Z,100857.03
2023-05-05T05:35:01.081Z,100860.84
2023-05-05T05:37:28.654Z,100869.63
2023-05-05T05:39:55.653Z,100868.03
2023-05-05T05:42:23.701Z,100865.19
2023-05-05T05:44:51.949Z,100861.25
2023-05-05T05:47:18.655Z,100864.03
2023-05-05T05:49:45.685Z,100874.19
2023-05-05T05:52:12.224Z,100871.78
2023-05-05T05:54:39.585Z,100863.22
2023-05-05T05:57:07.493Z,100864.44
2023-05-05T05:59:34.041Z,100864.16
2023-05-05T06:02:02.339Z,100857.38
2023-05-05T06:04:29.458Z,100855.50
2023-05-05T06:06:56.142Z,100861.19
2023-05-05T06:09:22.972Z,100856.56
2023-05-05T06:11:50.090Z,100862.75
2023-05-05T06:14:18.029Z,100864.69
2023-05-05T06:16:45.114Z,100869.94
2023-05-05T06:19:17.604Z,100867.19
2023-05-05T06:21:44.312Z,100871.59
2023-05-05T06:24:11.608Z,100869.66
2023-05-05T06:26:38.325Z,100859.25
2023-05-05T06:29:04.806Z,100865.06
2023-05-05T06:31:31.424Z,100869.75
2023-05-05T06:33:57.928Z,100864.66
2023-05-05T06:36:26.002Z,100873.19
2023-05-05T06:38:52.593Z,100868.09
2023-05-05T06:41:19.139Z,100876.81
2023-05-05T06:43:45.632Z,100876.53
2023-05-05T06:46:13.536Z,100877.13
2023-05-05T06:48:40.081Z,100881.66
2023-05-05T06:51:06.712Z,100837.66
2023-05-05T06:53:34.657Z,100880.41
2023-05-05T06:56:01.359Z,100886.44
2023-05-05T06:58:28.102Z,100884.78
2023-05-05T07:00:54.686Z,100886.16
2023-05-05T07:03:21.358Z,100885.81
2023-05-05T07:05:48.021Z,100882.81
2023-05-05T07:08:14.528Z,100889.38
2023-05-05T07:10:42.426Z,100889.38
2023-05-05T07:13:09.029Z,100888.88
2023-05-05T07:15:35.847Z,100879.69
2023-05-05T07:18:02.435Z,100879.31
2023-05-05T07:20:29.027Z,100880.09
2023-05-05T07:22:55.929Z,100873.88
2023-05-05T07:25:22.629Z,100885.38
2023-05-05T07:27:50.539Z,100893.19
2023-05-05T07:30:19.068Z,100888.72
2023-05-05T07:32:46.154Z,100895.34
2023-05-05T07:35:13.248Z,100887.16
2023-05-05T07:37:40.070Z,100893.50
2023-05-05T07:40:08.097Z,100899.63
2023-05-05T07:42:34.754Z,100898.91
2023-05-05T07:45:02.831Z,100898.91
2023-05-05T07:47:29.688Z,100896.28
2023-05-05T07:49:56.509Z,100901.75
2023-05-05T07:52:33.178Z,100895.56
2023-05-05T07:55:09.699Z,100884.94
2023-05-05T07:57:36.249Z,100892.84
2023-05-05T08:00:05.810Z,100888.66
2023-05-05T08:02:38.918Z,100891.88
2023-05-05T08:05:06.608Z,100891.22
2023-05-05T08:07:33.467Z,100893.81
2023-05-05T08:10:00.216Z,100895.22
2023-05-05T08:12:26.728Z,100898.78
2023-05-05T08:14:53.256Z,100886.09
2023-05-05T08:17:21.128Z,100889.91
2023-05-05T08:19:51.271Z,100890.53
2023-05-05T08:22:17.748Z,100886.06
2023-05-05T08:24:44.662Z,100888.75
2023-05-05T08:27:11.234Z,100891.28
2023-05-05T08:29:37.738Z,100887.00
2023-05-05T08:32:04.496Z,100882.66
2023-05-05T08:34:32.337Z,100890.06
2023-05-05T08:36:58.854Z,100891.59
2023-05-05T08:39:25.427Z,100885.31
2023-05-05T08:41:51.967Z,100890.59
2023-05-05T08:44:18.511Z,100897.09
2023-05-05T08:46:45.820Z,100887.47
2023-05-05T08:49:15.940Z,100885.56
2023-05-05T08:51:45.437Z,100891.63
2023-05-05T08:54:17.619Z,100890.84
2023-05-05T08:56:46.957Z,100878.03
2023-05-05T08:59:14.438Z,100883.31
2023-05-05T09:01:41.734Z,100882.31
2023-05-05T09:04:09.042Z,100890.81
2023-05-05T09:06:35.694Z,100887.94
2023-05-05T09:09:03.680Z,100886.34
2023-05-05T09:11:31.032Z,100886.91
2023-05-05T09:13:57.631Z,100880.28
2023-05-05T09:16:24.270Z,100885.03
2023-05-05T09:18:50.783Z,100876.50
2023-05-05T09:21:21.319Z,100885.97
2023-05-05T09:24:10.125Z,100890.97
2023-05-05T09:26:38.047Z,100889.13
2023-05-05T09:29:05.527Z,100892.59
2023-05-05T09:31:34.038Z,100890.53
2023-05-05T09:34:01.186Z,100893.00
2023-05-05T09:36:51.947Z,100884.34
2023-05-05T09:39:20.418Z,100889.56
2023-05-05T09:41:47.042Z,100880.06
2023-05-05T09:44:14.124Z,100884.81
2023-05-05T09:46:50.131Z,100880.06
2023-05-05T09:49:18.194Z,100880.03
2023-05-05T09:51:45.156Z,100865.59
2023-05-05T09:54:23.470Z,100864.16
2023-05-05T09:56:50.481Z,100873.69
2023-05-05T09:59:17.207Z,100874.53
2023-05-05T10:01:44.119Z,100879.06
2023-05-05T10:04:22.929Z,100869.31
2023-05-05T10:06:49.555Z,100872.63
2023-05-05T10:09:16.106Z,100857.63
2023-05-05T10:11:46.077Z,100860.56
2023-05-05T10:14:14.276Z,100853.25
2023-05-05T10:16:46.211Z,100854.41
2023-05-05T10:19:14.961Z,100849.16
2023-05-05T10:21:45.819Z,100843.34
2023-05-05T10:24:20.372Z,100839.03
2023-05-05T10:26:49.716Z,100844.97
2023-05-05T10:29:22.939Z,100845.97
2023-05-05T10:31:53.805Z,100851.22
2023-05-05T10:34:26.960Z,100850.03
2023-05-05T10:36:53.648Z,100844.44
2023-05-05T10:41:48.236Z,100838.44
2023-05-05T10:44:15.115Z,100832.84
2023-05-05T10:46:43.032Z,100822.69
2023-05-05T10:49:17.766Z,100823.75
2023-05-05T10:51:49.765Z,100836.75
2023-05-05T10:54:22.990Z,100832.75
2023-05-05T10:56:51.732Z,100832.75
2023-05-05T10:59:39.352Z,100813.28
2023-05-05T11:02:18.626Z,100813.50
2023-05-05T11:05:06.861Z,100810.97
2023-05-05T11:07:33.968Z,100807.63
2023-05-05T11:10:02.022Z,100798.72
2023-05-05T11:12:31.543Z,100803.09
2023-05-05T11:15:33.838Z,100805.41
2023-05-05T11:18:03.143Z,100799.69
2023-05-05T11:21:03.589Z,100792.31
2023-05-05T11:23:30.808Z,100790.88
2023-05-05T11:25:57.994Z,100813.44
2023-05-05T11:28:27.343Z,100810.72
2023-05-05T11:31:16.203Z,100837.44
2023-05-05T11:33:42.989Z,100823.22
2023-05-05T11:36:11.015Z,100865.13
2023-05-05T11:38:51.339Z,100860.06
2023-05-05T11:41:33.104Z,100853.75
2023-05-05T11:44:11.018Z,100848.06
2023-05-05T11:46:39.079Z,100852.00
2023-05-05T11:49:06.614Z,100833.53
2023-05-05T11:51:33.530Z,100847.75
2023-05-05T11:54:00.069Z,100851.38
2023-05-05T11:56:26.689Z,100895.94
2023-05-05T11:59:08.058Z,100917.53
2023-05-05T12:01:39.767Z,100931.16
2023-05-05T12:04:06.738Z,100908.06
2023-05-05T12:06:33.522Z,100923.56
2023-05-05T12:09:00.197Z,100917.06
2023-05-05T12:11:26.817Z,100924.00
2023-05-05T12:14:07.578Z,100915.03
2023-05-05T12:16:35.562Z,100912.72
2023-05-05T12:19:05.788Z,100913.84
2023-05-05T12:21:32.661Z,100906.44
2023-05-05T12:23:59.330Z,100904.56
2023-05-05T12:26:27.030Z,100887.94
2023-05-05T12:28:53.835Z,100900.53
2023-05-05T12:31:20.476Z,100896.56
2023-05-05T12:33:48.653Z,100886.88
2023-05-05T12:36:15.616Z,100877.72
2023-05-05T12:38:42.574Z,100886.91
2023-05-05T12:41:09.256Z,100874.25
2023-05-05T12:43:35.783Z,100873.97
2023-05-05T12:46:05.753Z,100858.16
2023-05-05T12:48:32.667Z,100870.13
2023-05-05T12:51:17.458Z,100873.19
2023-05-05T12:53:44.746Z,100864.50
2023-05-05T12:56:29.348Z,100869.00
2023-05-05T12:58:56.152Z,100870.59
2023-05-05T13:01:22.723Z,100869.00
2023-05-05T13:04:06.970Z,100861.41
2023-05-05T13:06:35.195Z,100864.09
2023-05-05T13:09:01.761Z,100871.59
2023-05-05T13:11:28.406Z,100872.50
2023-05-05T13:13:54.885Z,100876.84
2023-05-05T13:16:21.613Z,100861.19
2023-05-05T13:18:49.773Z,100862.50
2023-05-05T13:21:16.507Z,100871.69
2023-05-05T13:23:44.727Z,100868.28
2023-05-05T13:26:11.539Z,100854.59
2023-05-05T13:28:38.154Z,100847.19
2023-05-05T13:31:04.818Z,100848.16
2023-05-05T13:33:33.712Z,100853.13
2023-05-05T13:36:00.289Z,100840.31
2023-05-05T13:38:26.965Z,100848.41
2023-05-05T13:40:54.938Z,100842.59
2023-05-05T13:43:21.482Z,100848.19
2023-05-05T13:45:48.127Z,100840.31
2023-05-05T13:48:14.662Z,100832.59
2023-05-05T13:50:41.459Z,100827.63
2023-05-05T13:53:07.967Z,100810.25
2023-05-05T13:55:34.561Z,100821.63
2023-05-05T13:58:02.578Z,100810.25
2023-05-05T14:00:29.190Z,100819.38
2023-05-05T14:02:55.767Z,100812.94
2023-05-05T14:05:22.506Z,100816.00
2023-05-05T14:07:49.182Z,100807.19
2023-05-05T14:10:15.786Z,100809.69
2023-05-05T14:12:42.390Z,100797.25
2023-05-05T14:15:11.037Z,100804.09
2023-05-05T14:17:37.781Z,100804.72
2023-05-05T14:20:05.544Z,100802.19
2023-05-05T14:22:32.098Z,100804.81
2023-05-05T14:24:58.695Z,100813.00
2023-05-05T14:27:25.256Z,100808.47
2023-05-05T14:29:51.780Z,100806.81
2023-05-05T14:32:19.624Z,100812.88
2023-05-05T14:34:47.203Z,100806.22
2023-05-05T14:37:15.526Z,100799.00
2023-05-05T14:39:42.236Z,100796.19
2023-05-05T14:42:08.808Z,100801.19
2023-05-05T14:44:35.430Z,100796.47
2023-05-05T14:47:02.039Z,100786.50
2023-05-05T14:49:29.980Z,100784.53
2023-05-05T14:51:56.875Z,100783.97
2023-05-05T14:54:28.466Z,100780.47
2023-05-05T14:56:55.668Z,100782.16
2023-05-05T14:59:22.272Z,100780.72
2023-05-05T15:01:48.933Z,100777.03
2023-05-05T15:04:16.159Z,100786.22
2023-05-05T15:06:44.135Z,100776.75
2023-05-05T15:09:10.646Z,100783.41
2023-05-05T15:11:37.212Z,100789.63
2023-05-05T15:14:03.706Z,100787.78
2023-05-05T15:16:30.821Z,100788.00
2023-05-05T15:18:58.180Z,100789.84
2023-05-05T15:21:24.745Z,100781.38
2023-05-05T15:23:52.591Z,100776.84
2023-05-05T15:26:19.314Z,100770.19
2023-05-05T15:28:46.548Z,100778.03
2023-05-05T15:31:14.440Z,100770.19
2023-05-05T15:33:40.999Z,100769.72
2023-05-05T15:36:08.460Z,100781.25
2023-05-05T15:38:40.877Z,100776.88
2023-05-05T15:41:08.851Z,100781.94
2023-05-05T15:43:35.580Z,100791.59
2023-05-05T15:46:02.113Z,100793.88
2023-05-05T15:48:28.842Z,100786.59
2023-05-05T15:50:55.440Z,100786.59
2023-05-05T15:53:22.049Z,100777.53
2023-05-05T15:55:48.590Z,100778.97
2023-05-05T15:58:16.411Z,100783.50
2023-05-05T16:00:43.121Z,100787.25
2023-05-05T16:03:09.752Z,100806.16
2023-05-05T16:05:36.341Z,100810.63
2023-05-05T16:08:02.943Z,100828.69
2023-05-05T16:10:29.557Z,100839.19
2023-05-05T16:12:56.201Z,100842.00
2023-05-05T16:15:24.427Z,100873.75
2023-05-05T16:17:51.030Z,100879.78
2023-05-05T16:20:17.632Z,100884.19
2023-05-05T16:22:44.716Z,100887.47
2023-05-05T16:25:11.381Z,100881.03
2023-05-05T16:27:38.012Z,100861.75
2023-05-05T16:30:05.418Z,100865.69
2023-05-05T16:32:33.390Z,100860.03
2023-05-05T16:34:59.978Z,100851.72
2023-05-05T16:37:26.540Z,100852.13
2023-05-05T16:39:53.079Z,100845.84
2023-05-05T16:42:19.652Z,100844.19
2023-05-05T16:44:46.255Z,100832.75
2023-05-05T16:47:12.733Z,100829.66
2023-05-05T16:49:40.663Z,100826.75
2023-05-05T16:52:07.177Z,100829.69
2023-05-05T16:54:33.771Z,100832.44
2023-05-05T16:57:00.286Z,100827.19
2023-05-05T16:59:26.905Z,100828.59
2023-05-05T17:01:53.453Z,100826.34
2023-05-05T17:04:20.091Z,100831.75
2023-05-05T17:06:47.917Z,100825.69
2023-05-05T17:09:14.458Z,100837.91
2023-05-05T17:11:40.934Z,100828.28
2023-05-05T17:14:07.547Z,100835.50
2023-05-05T17:16:34.221Z,100834.91
2023-05-05T17:19:00.826Z,100826.63
2023-05-05T17:21:27.328Z,100831.63
2023-05-05T17:23:55.224Z,100830.66
2023-05-05T17:26:21.708Z,100819.88
2023-05-05T17:28:48.303Z,100826.56
2023-05-05T17:31:14.834Z,100816.78
2023-05-05T17:33:41.428Z,100828.97
2023-05-05T17:36:08.751Z,100832.34
2023-05-05T17:38:35.274Z,100835.69
2023-05-05T17:41:03.123Z,100837.84
2023-05-05T17:43:29.676Z,100840.03
2023-05-05T17:45:56.150Z,100838.31
2023-05-05T17:48:22.838Z,100837.94
2023-05-05T17:50:49.384Z,100839.75
2023-05-05T17:53:15.902Z,100841.22
2023-05-05T17:55:44.556Z,100835.41
2023-05-05T17:58:12.545Z,100836.25
2023-05-05T18:00:39.079Z,100843.13
2023-05-05T18:03:05.710Z,100843.31
2023-05-05T18:05:32.396Z,100839.81
2023-05-05T18:07:58.993Z,100846.84
2023-05-05T18:10:25.506Z,100846.34
2023-05-05T18:12:52.262Z,100821.88
2023-05-05T18:15:20.160Z,100839.72
2023-05-05T18:17:46.793Z,100853.69
2023-05-05T18:20:13.678Z,100842.53
2023-05-05T18:22:40.230Z,100846.72
2023-05-05T18:25:08.341Z,100847.88
2023-05-05T18:27:34.996Z,100845.34
2023-05-05T18:30:01.726Z,100840.53
2023-05-05T18:32:29.635Z,100861.00
2023-05-05T18:34:56.144Z,100859.00
2023-05-05T18:37:22.748Z,100866.84
2023-05-05T18:39:49.260Z,100849.16
2023-05-05T18:42:15.852Z,100868.69
2023-05-05T18:44:42.392Z,100869.66
2023-05-05T18:47:09.122Z,100871.81
2023-05-05T18:49:37.152Z,100878.94
2023-05-05T18:52:03.976Z,100882.41
2023-05-05T18:54:30.483Z,100880.41
2023-05-05T18:56:57.085Z,100890.56
2023-05-05T18:59:23.950Z,100887.38
2023-05-05T19:01:51.148Z,100896.53
2023-05-05T19:04:30.220Z,100907.13
2023-05-05T19:06:59.661Z,100918.00
2023-05-05T19:09:26.376Z,100919.25
2023-05-05T19:11:53.014Z,100915.97
2023-05-05T19:14:19.475Z,100919.59
2023-05-05T19:16:46.155Z,100920.97
2023-05-05T19:19:12.803Z,100922.97
2023-05-05T19:21:39.489Z,100911.31
2023-05-05T19:24:08.489Z,100915.13
2023-05-05T19:26:35.126Z,100910.72
2023-05-05T19:29:01.622Z,100905.47
2023-05-05T19:31:28.286Z,100912.25
2023-05-05T19:33:59.495Z,100904.06
2023-05-05T19:36:26.092Z,100891.53
2023-05-05T19:38:52.665Z,100914.25
2023-05-05T19:41:20.597Z,100917.22
2023-05-05T19:43:47.074Z,100908.56
2023-05-05T19:46:14.412Z,100901.84
2023-05-05T19:48:40.923Z,100917.34
2023-05-05T19:51:07.538Z,100917.50
2023-05-05T19:53:34.082Z,100915.47
2023-05-05T19:56:00.868Z,100921.91
2023-05-05T19:58:28.702Z,100913.22
2023-05-05T20:00:55.222Z,100929.69
2023-05-05T20:03:21.853Z,100923.69
2023-05-05T20:05:48.539Z,100922.19
2023-05-05T20:08:15.430Z,100915.88
2023-05-05T20:10:41.983Z,100915.72
2023-05-05T20:13:08.603Z,100918.81
2023-05-05T20:15:36.668Z,100923.63
2023-05-05T20:18:03.391Z,100923.28
2023-05-05T20:20:29.954Z,100922.72
2023-05-05T20:22:56.451Z,100919.69
2023-05-05T20:25:23.088Z,100925.50
2023-05-05T20:27:49.645Z,100927.91
2023-05-05T20:30:16.235Z,100926.84
2023-05-05T20:32:44.128Z,100923.13
2023-05-05T20:35:10.716Z,100918.06
2023-05-05T20:37:37.217Z,100920.06
2023-05-05T20:40:04.190Z,100916.50
2023-05-05T20:42:30.680Z,100927.88
2023-05-05T20:44:57.340Z,100932.13
2023-05-05T20:47:23.868Z,100924.75
2023-05-05T20:49:51.808Z,100922.84
2023-05-05T20:52:18.333Z,100934.03
2023-05-05T20:54:44.953Z,100925.84
2023-05-05T20:57:11.491Z,100921.72
2023-05-05T20:59:38.212Z,100925.09
2023-05-05T21:02:04.814Z,100925.00
2023-05-05T21:04:31.488Z,100925.59
2023-05-05T21:06:59.403Z,100923.50
2023-05-05T21:09:26.067Z,100928.13
2023-05-05T21:11:52.585Z,100926.75
2023-05-05T21:14:19.141Z,100924.50
2023-05-05T21:16:45.736Z,100924.81
2023-05-05T21:19:12.298Z,100917.97
2023-05-05T21:21:38.827Z,100922.44
2023-05-05T21:24:08.137Z,100921.59
2023-05-05T21:26:34.779Z,100925.78
2023-05-05T21:29:01.351Z,100917.81
2023-05-05T21:31:27.893Z,100917.13
2023-05-05T21:33:54.440Z,100923.41
2023-05-05T21:36:20.927Z,100922.34
2023-05-05T21:38:47.486Z,100930.16
2023-05-05T21:41:15.330Z,100925.09
2023-05-05T21:43:42.027Z,100923.44
2023-05-05T21:46:08.601Z,100929.00
2023-05-05T21:48:35.291Z,100930.13
2023-05-05T21:51:01.786Z,100932.78
2023-05-05T21:53:28.368Z,100930.69
2023-05-05T21:55:54.871Z,100937.69
2023-05-05T21:58:23.397Z,100946.59
2023-05-05T22:00:50.168Z,100942.28
2023-05-05T22:03:16.989Z,100944.91
2023-05-05T22:05:43.539Z,100953.56
2023-05-05T22:08:10.111Z,100952.59
2023-05-05T22:10:36.712Z,100950.75
2023-05-05T22:13:03.330Z,100939.88
2023-05-05T22:15:38.908Z,100940.75
2023-05-05T22:18:09.712Z,100938.09
2023-05-05T22:20:36.967Z,100937.97
2023-05-05T22:23:03.488Z,100943.41
2023-05-05T22:25:30.149Z,100948.56
2023-05-05T22:27:56.688Z,100937.38
2023-05-05T22:30:23.153Z,100944.13
2023-05-05T22:32:51.105Z,100950.22
2023-05-05T22:35:17.650Z,100947.75
2023-05-05T22:37:44.186Z,100951.38
2023-05-05T22:40:11.525Z,100947.75
2023-05-05T22:42:38.240Z,100952.31
2023-05-05T22:45:05.332Z,100954.25
2023-05-05T22:47:31.974Z,100949.78
2023-05-05T22:49:59.875Z,100951.47
2023-05-05T22:52:26.385Z,100955.78
2023-05-05T22:54:52.880Z,100954.13
2023-05-05T22:57:19.472Z,100955.94
2023-05-05T22:59:46.024Z,100958.72
2023-05-05T23:02:12.648Z,100952.44
2023-05-05T23:04:39.478Z,100961.22
2023-05-05T23:07:07.452Z,100960.25
2023-05-05T23:09:33.950Z,100957.91
2023-05-05T23:12:00.454Z,100954.56
2023-05-05T23:14:27.097Z,100951.91
2023-05-05T23:16:53.721Z,100953.84
2023-05-05T23:19:20.330Z,100942.72
2023-05-05T23:21:53.398Z,100946.88
2023-05-05T23:24:21.816Z,100936.56
2023-05-05T23:26:48.341Z,100944.78
2023-05-05T23:29:14.889Z,100937.84
2023-05-05T23:31:41.600Z,100941.84
2023-05-05T23:34:08.473Z,100947.16
2023-05-05T23:36:34.955Z,100943.00
2023-05-05T23:39:01.483Z,100937.13
2023-05-05T23:41:29.334Z,100941.88
2023-05-05T23:43:56.432Z,100935.47
2023-05-05T23:46:23.177Z,100939.50
2023-05-05T23:48:50.195Z,100941.47
2023-05-05T23:51:16.840Z,100936.72
2023-05-05T23:53:43.481Z,100932.41
2023-05-05T23:56:09.996Z,100935.91
2023-05-05T23:58:37.941Z,100936.72
